Flight Track Log - Related Links

Times and Time Zones

All times are in EST time to prevent confusion due to time zone crossing. See the SVA1488 flight status page for this flight to view local times or setup timezone preferences in your user account.

Time Position Orientation Groundspeed Altitude Reporting Facility
EST Latitude Longitude Course Direction KTS MPH feet Rate Location/Type
Sun 07:47:00 AM 27.0704 46.3439 171° South  Level Estimated
Sun 07:48:00 AM 26.9861 46.3584 171° South  Level Estimated
Sun 07:49:00 AM 26.9018 46.3727 171° South  Level Estimated
Sun 07:50:00 AM 26.8175 46.3871 171° South  Level Estimated
Sun 07:51:00 AM 26.7331 46.4015 171° South  Level Estimated
Sun 07:52:00 AM 26.6488 46.4158 171° South  Level Estimated
Sun 07:53:00 AM 26.5645 46.4301 171° South  Level Estimated
Sun 07:54:00 AM 26.4801 46.4444 171° South  Level Estimated
Sun 07:55:00 AM 26.3958 46.4587 171° South  Level Estimated
Sun 07:56:00 AM 26.3114 46.4729 171° South  Level Estimated
Sun 07:57:00 AM 26.2271 46.4871 171° South  Level Estimated
Sun 07:58:00 AM 26.1428 46.5013 171° South  Level Estimated
Sun 07:59:00 AM 26.0584 46.5155 171° South  Level Estimated
Sun 08:00:00 AM 25.9741 46.5297 171° South  Level Estimated
Sun 08:01:00 AM 25.8686 46.5474 171° South  Level Estimated
Sun 08:02:00 AM 25.7632 46.5650 171° South  Level Estimated
Sun 08:03:00 AM 25.6578 46.5826 171° South  Level Estimated
Sun 08:04:00 AM 25.5523 46.6002 171° South  Level Estimated
Sun 08:05:00 AM 25.4469 46.6177 171° South  Level Estimated
Sun 08:06:00 AM 25.3414 46.6353 171° South  Level Estimated
Sun 08:07:00 AM 25.2360 46.6527 171° South  Level Estimated
Sun 08:08:00 AM 25.1305 46.6702 171° South  Level Estimated
Sun 08:09:00 AM 25.0251 46.6876 171° South  Level Estimated
Sun 08:10:00 AM 24.9576 46.6988 171° South  Level Estimated
Sun 08:11:00 AM 24.9576 46.6988 270° West  Level Estimated
Sun 08:12:00 AM 24.9576 46.6988 270° West  Level Estimated
Sun 08:13:00 AM 24.9576 46.6988 270° West  Level Estimated
Sun 08:14:00 AM 24.9576 46.6988 270° West  Level Estimated
Sun 08:15:00 AM 24.9576 46.6988 270° West  Level Estimated
Sun 08:16:00 AM 24.9576 46.6988 270° West  Level Estimated
Sun 08:17:00 AM 24.9576 46.6988 270° West  Level Estimated
Sun 08:18:00 AM 24.9576 46.6988 270° West  Level Estimated
Sun 08:19:00 AM 24.9576 46.6988 270° West  Level Estimated
Sun 08:20:00 AM 24.9576 46.6988 270° West  Level Estimated

Login

Don't have an account? Register now (free) for customized features, flight alerts, and more!